createdAt,value
2023-03-10T00:02:12.144Z,10.20
2023-03-10T00:07:14.273Z,10.20
2023-03-10T00:12:17.871Z,10.20
2023-03-10T00:17:20.117Z,10.30
2023-03-10T00:22:21.973Z,10.20
2023-03-10T00:27:24.590Z,10.30
2023-03-10T00:32:26.568Z,10.30
2023-03-10T00:37:28.712Z,10.30
2023-03-10T00:42:30.693Z,10.40
2023-03-10T00:47:32.914Z,10.50
2023-03-10T00:52:37.442Z,10.50
2023-03-10T00:57:39.398Z,10.40
2023-03-10T01:02:41.290Z,10.30
2023-03-10T01:07:43.116Z,10.40
2023-03-10T01:12:45.156Z,10.40
2023-03-10T01:17:46.937Z,10.50
2023-03-10T01:22:48.811Z,10.50
2023-03-10T01:27:50.866Z,10.50
2023-03-10T01:32:52.698Z,10.40
2023-03-10T01:37:55.136Z,10.40
2023-03-10T01:43:22.400Z,10.40
2023-03-10T01:48:24.552Z,10.40
2023-03-10T01:53:28.421Z,10.40
2023-03-10T01:58:37.948Z,10.40
2023-03-10T02:04:03.514Z,10.40
2023-03-10T02:09:05.830Z,10.40
2023-03-10T02:14:07.869Z,10.40
2023-03-10T02:19:30.402Z,10.40
2023-03-10T02:24:53.021Z,10.30
2023-03-10T02:30:04.289Z,10.30
2023-03-10T02:35:06.771Z,10.30
2023-03-10T02:40:33.881Z,10.20
2023-03-10T02:45:40.041Z,10.20
2023-03-10T02:50:45.547Z,10.10
2023-03-10T02:55:47.429Z,10.00
2023-03-10T03:00:49.942Z,10.10
2023-03-10T03:05:52.647Z,10.00
2023-03-10T03:10:54.924Z,10.00
2023-03-10T03:15:56.798Z,10.00
2023-03-10T03:20:58.632Z,10.00
2023-03-10T03:26:00.948Z,10.00
2023-03-10T03:31:02.901Z,10.00
2023-03-10T03:36:04.934Z,10.00
2023-03-10T03:41:07.820Z,10.00
2023-03-10T03:46:09.817Z,10.00
2023-03-10T03:51:11.673Z,10.10
2023-03-10T03:56:13.478Z,10.10
2023-03-10T04:01:16.567Z,10.10
2023-03-10T04:06:18.547Z,10.00
2023-03-10T04:11:20.490Z,10.00
2023-03-10T04:16:22.320Z,10.00
2023-03-10T04:21:25.524Z,10.00
2023-03-10T04:26:27.356Z,10.00
2023-03-10T04:31:29.177Z,9.90
2023-03-10T04:36:31.194Z,9.90
2023-03-10T04:41:33.237Z,9.80
2023-03-10T04:46:35.466Z,9.80
2023-03-10T04:51:37.268Z,9.80
2023-03-10T04:56:39.237Z,9.80
2023-03-10T05:01:41.119Z,9.80
2023-03-10T05:06:43.159Z,9.70
2023-03-10T05:11:45.485Z,9.60
2023-03-10T05:16:48.720Z,9.60
2023-03-10T05:21:50.491Z,9.50
2023-03-10T05:26:52.500Z,9.40
2023-03-10T05:31:54.509Z,9.40
2023-03-10T05:36:56.586Z,9.40
2023-03-10T05:41:58.443Z,9.40
2023-03-10T05:47:00.470Z,9.40
2023-03-10T05:52:02.376Z,9.30
2023-03-10T05:57:04.612Z,9.30
2023-03-10T06:02:06.425Z,9.30
2023-03-10T06:07:08.452Z,9.30
2023-03-10T06:12:10.280Z,9.30
2023-03-10T06:17:12.054Z,9.30
2023-03-10T06:22:13.826Z,9.40
2023-03-10T06:27:15.771Z,9.40
2023-03-10T06:32:17.928Z,9.30
2023-03-10T06:37:20.692Z,9.30
2023-03-10T06:42:22.508Z,9.40
2023-03-10T06:47:24.567Z,9.50
2023-03-10T06:52:26.425Z,9.50
2023-03-10T06:57:28.646Z,9.60
2023-03-10T07:02:30.667Z,9.70
2023-03-10T07:07:32.529Z,9.80
2023-03-10T07:12:34.364Z,9.80
2023-03-10T07:17:36.277Z,9.90
2023-03-10T07:22:38.048Z,10.00
2023-03-10T07:27:39.945Z,10.10
2023-03-10T07:32:41.977Z,10.10
2023-03-10T07:37:43.815Z,10.20
2023-03-10T07:42:45.594Z,10.20
2023-03-10T07:47:47.923Z,10.10
2023-03-10T07:52:50.407Z,10.10
2023-03-10T07:57:52.232Z,10.10
2023-03-10T08:02:53.987Z,10.00
2023-03-10T08:07:55.791Z,9.90
2023-03-10T08:12:57.591Z,9.90
2023-03-10T08:18:00.168Z,9.90
2023-03-10T08:23:02.351Z,9.80
2023-03-10T08:28:04.195Z,9.90
2023-03-10T08:33:08.364Z,9.90
2023-03-10T08:38:10.223Z,9.80
2023-03-10T08:43:11.999Z,9.80
2023-03-10T08:48:13.824Z,9.70
2023-03-10T08:53:15.582Z,9.60
2023-03-10T08:58:17.598Z,9.60
2023-03-10T09:03:20.016Z,9.50
2023-03-10T09:08:22.274Z,9.50
2023-03-10T09:13:24.193Z,9.40
2023-03-10T09:18:26.099Z,9.50
2023-03-10T09:23:28.388Z,9.50
2023-03-10T09:28:30.443Z,9.50
2023-03-10T09:33:32.706Z,9.50
2023-03-10T09:38:35.521Z,9.50
2023-03-10T09:43:40.067Z,9.60
2023-03-10T09:49:16.677Z,9.60
2023-03-10T09:54:50.468Z,9.70
2023-03-10T09:59:58.858Z,9.80
2023-03-10T10:05:14.948Z,9.80
2023-03-10T10:10:25.020Z,9.80
2023-03-10T10:15:28.981Z,9.80
2023-03-10T10:20:42.420Z,9.80
2023-03-10T10:25:44.331Z,9.80
2023-03-10T10:30:46.379Z,9.90
2023-03-10T10:36:03.393Z,9.90
2023-03-10T10:41:21.804Z,9.90
2023-03-10T10:46:27.346Z,9.90
2023-03-10T10:51:32.508Z,10.00
2023-03-10T10:56:34.634Z,10.20
2023-03-10T11:01:54.177Z,10.20
2023-03-10T11:07:11.540Z,10.20
2023-03-10T11:12:34.443Z,10.30
2023-03-10T11:17:49.313Z,10.30
2023-03-10T11:22:57.038Z,10.30
2023-03-10T11:28:13.982Z,10.50
2023-03-10T11:33:25.044Z,10.50
2023-03-10T11:38:32.872Z,10.40
2023-03-10T11:44:19.155Z,10.60
2023-03-10T11:49:26.928Z,10.70
2023-03-10T11:54:35.462Z,10.70
2023-03-10T11:59:44.325Z,10.50
2023-03-10T12:04:59.232Z,9.90
2023-03-10T12:10:24.123Z,9.50
2023-03-10T12:15:37.111Z,9.40
2023-03-10T12:20:38.948Z,9.40
2023-03-10T12:25:44.908Z,9.20
2023-03-10T12:30:59.657Z,8.90
2023-03-10T12:36:15.013Z,8.80
2023-03-10T12:41:29.250Z,8.80
2023-03-10T12:46:47.863Z,8.80
2023-03-10T12:52:01.054Z,8.70
2023-03-10T12:57:19.165Z,8.70
2023-03-10T13:02:32.565Z,8.70
2023-03-10T13:07:35.966Z,8.50
2023-03-10T13:12:51.275Z,8.50
2023-03-10T13:17:55.312Z,8.50
2023-03-10T13:22:59.263Z,8.30
2023-03-10T13:28:10.025Z,8.30
2023-03-10T13:33:24.678Z,8.40
2023-03-10T13:38:27.968Z,8.30
2023-03-10T13:43:41.750Z,8.10
2023-03-10T13:48:44.487Z,8.10
2023-03-10T13:53:48.381Z,8.00
2023-03-10T13:58:52.457Z,7.80
2023-03-10T14:03:57.488Z,7.60
2023-03-10T14:09:18.079Z,7.50
2023-03-10T14:14:38.040Z,7.50
2023-03-10T14:19:42.677Z,7.50
2023-03-10T14:24:44.475Z,7.50
2023-03-10T14:29:50.967Z,6.90
2023-03-10T14:34:52.810Z,6.30
2023-03-10T14:39:54.526Z,6.20
2023-03-10T14:44:59.984Z,6.00
2023-03-10T14:50:02.056Z,5.60
2023-03-10T14:55:08.089Z,5.50
2023-03-10T15:00:28.225Z,5.40
2023-03-10T15:05:45.390Z,5.10
2023-03-10T15:10:51.060Z,4.80
2023-03-10T15:15:53.362Z,4.60
2023-03-10T15:20:58.982Z,4.60
2023-03-10T15:26:03.852Z,4.50
2023-03-10T15:31:06.718Z,4.50
2023-03-10T15:36:09.644Z,4.40
2023-03-10T15:41:13.077Z,4.60
2023-03-10T15:46:15.004Z,4.40
2023-03-10T15:51:18.057Z,4.30
2023-03-10T15:56:19.839Z,4.60
2023-03-10T16:01:21.800Z,4.50
2023-03-10T16:06:28.183Z,4.40
2023-03-10T16:11:30.023Z,4.40
2023-03-10T16:16:31.917Z,4.40
2023-03-10T16:21:33.738Z,4.40
2023-03-10T16:26:35.515Z,4.30
2023-03-10T16:31:38.947Z,4.30
2023-03-10T16:36:40.836Z,4.10
2023-03-10T16:41:42.714Z,4.10
2023-03-10T16:46:44.753Z,4.10
2023-03-10T16:51:47.868Z,4.10
2023-03-10T16:56:51.804Z,4.00
2023-03-10T17:01:53.815Z,4.10
2023-03-10T17:06:55.709Z,4.20
2023-03-10T17:11:57.564Z,4.10
2023-03-10T17:17:01.638Z,4.20
2023-03-10T17:22:03.470Z,4.20
2023-03-10T17:27:07.402Z,4.30
2023-03-10T17:32:09.243Z,4.30
2023-03-10T17:37:11.137Z,4.20
2023-03-10T17:42:12.877Z,4.30
2023-03-10T17:47:14.620Z,4.20
2023-03-10T17:52:16.409Z,4.00
2023-03-10T17:57:18.484Z,3.80
2023-03-10T18:02:20.404Z,3.90
2023-03-10T18:07:22.205Z,4.00
2023-03-10T18:12:24.419Z,3.90
2023-03-10T18:17:27.559Z,3.90
2023-03-10T18:22:29.327Z,3.70
2023-03-10T18:27:32.333Z,3.60
2023-03-10T18:32:34.720Z,3.60
2023-03-10T18:37:36.881Z,3.60
2023-03-10T18:42:38.700Z,3.70
2023-03-10T18:47:40.543Z,3.60
2023-03-10T18:52:42.934Z,3.60
2023-03-10T18:57:44.962Z,3.50
2023-03-10T19:02:46.874Z,3.50
2023-03-10T19:07:48.683Z,3.40
2023-03-10T19:12:51.942Z,3.40
2023-03-10T19:17:53.802Z,3.40
2023-03-10T19:22:55.673Z,3.40
2023-03-10T19:27:57.903Z,3.30
2023-03-10T19:33:00.725Z,3.30
2023-03-10T19:38:02.861Z,3.30
2023-03-10T19:43:04.995Z,3.20
2023-03-10T19:48:06.987Z,3.20
2023-03-10T19:53:11.449Z,3.20
2023-03-10T19:58:13.638Z,3.20
2023-03-10T20:03:16.708Z,3.20
2023-03-10T20:08:20.104Z,3.70
2023-03-10T20:13:21.999Z,3.30
2023-03-10T20:18:24.436Z,3.00
2023-03-10T20:23:27.058Z,2.90
2023-03-10T20:28:29.032Z,2.90
2023-03-10T20:33:31.245Z,2.80
2023-03-10T20:38:33.038Z,2.80
2023-03-10T20:43:35.740Z,2.80
2023-03-10T20:48:37.810Z,2.80
2023-03-10T20:53:39.578Z,2.80
2023-03-10T20:58:41.544Z,2.80
2023-03-10T21:03:43.371Z,2.70
2023-03-10T21:08:45.537Z,2.60
2023-03-10T21:13:47.325Z,2.70
2023-03-10T21:18:49.155Z,2.70
2023-03-10T21:23:50.909Z,2.70
2023-03-10T21:28:52.920Z,2.60
2023-03-10T21:33:54.813Z,2.60
2023-03-10T21:38:56.893Z,2.70
2023-03-10T21:43:59.726Z,2.70
2023-03-10T21:49:01.696Z,2.80
2023-03-10T21:54:04.486Z,2.80
2023-03-10T21:59:07.403Z,2.80
2023-03-10T22:04:12.320Z,2.70
2023-03-10T22:09:14.394Z,2.80
2023-03-10T22:14:16.259Z,2.70
2023-03-10T22:19:18.013Z,2.60
2023-03-10T22:24:19.764Z,2.70
2023-03-10T22:29:21.595Z,2.70
2023-03-10T22:34:24.664Z,2.70
2023-03-10T22:39:26.482Z,2.60
2023-03-10T22:44:28.316Z,2.60
2023-03-10T22:49:30.238Z,2.60
2023-03-10T22:54:31.991Z,2.50
2023-03-10T22:59:33.749Z,2.60
2023-03-10T23:04:35.576Z,2.50
2023-03-10T23:09:37.646Z,2.50
2023-03-10T23:14:39.420Z,2.50
2023-03-10T23:19:41.369Z,2.50
2023-03-10T23:24:43.255Z,2.60
2023-03-10T23:29:46.619Z,2.70
2023-03-10T23:34:48.575Z,2.70
2023-03-10T23:39:51.129Z,2.70
2023-03-10T23:44:52.908Z,2.80
2023-03-10T23:49:56.156Z,2.90
2023-03-10T23:54:57.927Z,2.80
2023-03-10T23:59:59.776Z,2.70
